メインページ
METAR-TAF:

METAR-TAF

空港 :

ラナイ・シティ, ハワイ州, アメリカ合衆国

緯度: 20-47N, 経度: 156-57W, 海抜: 399m

現時点の気象観測

当レポートは24分前の04:56(UTC)に作成
西/北西の風 7kt
気温 23°C
湿度 78%
気圧 1018 hPa
視程: 16.1km
高度1400ftの千切れ雲あり

METAR: PHNY 200456Z AUTO 29007KT 10SM BKN014 23/19 A3005 RMK AO2 SLP156 T02280194

時間: 19:20 (05:20 UTC)

予報

当レポートは2時間36分前の02:44(UTC)に作成
予報は20日の 03時(UTC)から 20日の 24時(UTC)まで有効
西/南西の風 8kt
視程: 10km
高度1600ftの曇り
20日の 0600時(UTC)から
東/北東の風 5kt
視程: 10km
高度2000ftの雲はほとんどない
高度4500ftの雲は散在している
20日の 2000時(UTC)から
変向風 6kt
視程: 10km
高度2000ftの雲はほとんどない
高度4500ftの雲は散在している

TAF: PHNY 200244Z 2003/2024 25008KT P6SM OVC016 FM200600 07005KT P6SM FEW020 SCT045 FM202000 VRB06KT P6SM FEW020 SCT045

4,000以上の空港の気象観測と天気予報(METAR報とTAF報)

利用可能な観測所は地図上に黄色い丸と赤い丸で示す。

丸の上にカーソルを重ねると観測所名を参照できる。

次にクリックすると気象観測と天気予報を参照できる。

マップの切り替え:黒色「×」印の緑ボタンをクリックして拡大、「-」印の緑ボタンをクリックして縮小、緑色の三角印をクリックして隣りの地図に切り替え


METAR-TAF: